sensor_id;sensor_type;location;lat;lon;timestamp;pressure;altitude;pressure_sealevel;temperature;humidity
41202;BME280;26936;50.524;8.684;2023-03-14T00:02:25;97344.78;;;10.81;100.00
41202;BME280;26936;50.524;8.684;2023-03-14T00:04:54;97347.09;;;10.82;100.00
41202;BME280;26936;50.524;8.684;2023-03-14T00:07:19;97345.53;;;10.76;100.00
41202;BME280;26936;50.524;8.684;2023-03-14T00:09:44;97330.72;;;10.81;100.00
41202;BME280;26936;50.524;8.684;2023-03-14T00:12:10;97316.06;;;10.71;100.00
41202;BME280;26936;50.524;8.684;2023-03-14T00:14:35;97309.88;;;10.62;100.00
41202;BME280;26936;50.524;8.684;2023-03-14T00:17:00;97328.09;;;10.72;100.00
41202;BME280;26936;50.524;8.684;2023-03-14T00:19:25;97322.63;;;10.57;100.00
41202;BME280;26936;50.524;8.684;2023-03-14T00:21:51;97311.88;;;10.56;100.00
41202;BME280;26936;50.524;8.684;2023-03-14T00:24:16;97334.38;;;10.56;100.00
41202;BME280;26936;50.524;8.684;2023-03-14T00:26:41;97344.25;;;10.77;99.17
41202;BME280;26936;50.524;8.684;2023-03-14T00:29:06;97340.16;;;10.78;98.80
41202;BME280;26936;50.524;8.684;2023-03-14T00:31:32;97316.91;;;10.83;98.87
41202;BME280;26936;50.524;8.684;2023-03-14T00:33:57;97319.78;;;10.94;97.72
41202;BME280;26936;50.524;8.684;2023-03-14T00:36:23;97329.78;;;11.01;97.61
41202;BME280;26936;50.524;8.684;2023-03-14T00:38:50;97332.59;;;11.01;97.77
41202;BME280;26936;50.524;8.684;2023-03-14T00:41:18;97338.75;;;11.05;97.51
41202;BME280;26936;50.524;8.684;2023-03-14T00:43:43;97334.16;;;11.07;97.41
41202;BME280;26936;50.524;8.684;2023-03-14T00:46:09;97334.41;;;11.04;97.73
41202;BME280;26936;50.524;8.684;2023-03-14T00:48:35;97335.47;;;11.12;96.73
41202;BME280;26936;50.524;8.684;2023-03-14T00:51:02;97333.69;;;11.14;96.33
41202;BME280;26936;50.524;8.684;2023-03-14T00:53:27;97333.69;;;11.20;95.41
41202;BME280;26936;50.524;8.684;2023-03-14T00:55:52;97319.09;;;11.21;95.03
41202;BME280;26936;50.524;8.684;2023-03-14T00:58:18;97305.78;;;11.22;94.96
41202;BME280;26936;50.524;8.684;2023-03-14T01:00:44;97286.06;;;11.22;94.53
41202;BME280;26936;50.524;8.684;2023-03-14T01:03:11;97261.75;;;11.24;94.53
41202;BME280;26936;50.524;8.684;2023-03-14T01:05:37;97254.31;;;11.21;94.51
41202;BME280;26936;50.524;8.684;2023-03-14T01:08:03;97246.13;;;11.23;93.98
41202;BME280;26936;50.524;8.684;2023-03-14T01:10:29;97234.81;;;11.18;94.23
41202;BME280;26936;50.524;8.684;2023-03-14T01:12:54;97246.09;;;11.12;94.55
41202;BME280;26936;50.524;8.684;2023-03-14T01:15:20;97253.28;;;11.19;94.37
41202;BME280;26936;50.524;8.684;2023-03-14T01:17:45;97258.91;;;11.08;95.44
41202;BME280;26936;50.524;8.684;2023-03-14T01:20:13;97251.94;;;11.03;95.87
41202;BME280;26936;50.524;8.684;2023-03-14T01:22:39;97260.66;;;11.05;96.11
41202;BME280;26936;50.524;8.684;2023-03-14T01:25:09;97264.22;;;10.94;96.80
41202;BME280;26936;50.524;8.684;2023-03-14T01:27:34;97289.81;;;10.91;98.15
41202;BME280;26936;50.524;8.684;2023-03-14T01:30:00;97270.59;;;10.95;98.01
41202;BME280;26936;50.524;8.684;2023-03-14T01:32:25;97284.94;;;10.91;98.41
41202;BME280;26936;50.524;8.684;2023-03-14T01:34:51;97286.22;;;10.90;98.38
41202;BME280;26936;50.524;8.684;2023-03-14T01:37:16;97271.63;;;10.92;99.26
41202;BME280;26936;50.524;8.684;2023-03-14T01:39:41;97257.28;;;10.84;100.00
41202;BME280;26936;50.524;8.684;2023-03-14T01:42:06;97263.13;;;10.81;100.00
41202;BME280;26936;50.524;8.684;2023-03-14T01:44:55;97273.34;;;10.78;100.00
41202;BME280;26936;50.524;8.684;2023-03-14T01:47:21;97261.81;;;10.71;100.00
41202;BME280;26936;50.524;8.684;2023-03-14T01:49:50;97261.28;;;10.67;100.00
41202;BME280;26936;50.524;8.684;2023-03-14T01:55:06;97245.38;;;10.58;100.00
41202;BME280;26936;50.524;8.684;2023-03-14T01:57:37;97249.44;;;10.57;100.00
41202;BME280;26936;50.524;8.684;2023-03-14T02:00:07;97240.25;;;10.62;100.00
41202;BME280;26936;50.524;8.684;2023-03-14T02:02:37;97225.69;;;10.64;100.00
41202;BME280;26936;50.524;8.684;2023-03-14T02:05:03;97226.97;;;10.63;100.00
41202;BME280;26936;50.524;8.684;2023-03-14T02:07:48;97205.97;;;10.64;100.00
41202;BME280;26936;50.524;8.684;2023-03-14T02:10:16;97203.44;;;10.60;100.00
41202;BME280;26936;50.524;8.684;2023-03-14T02:12:44;97225.44;;;10.67;100.00
41202;BME280;26936;50.524;8.684;2023-03-14T02:15:10;97215.19;;;10.64;100.00
41202;BME280;26936;50.524;8.684;2023-03-14T02:17:35;97212.41;;;10.70;100.00
41202;BME280;26936;50.524;8.684;2023-03-14T02:22:37;97222.66;;;10.73;100.00
41202;BME280;26936;50.524;8.684;2023-03-14T02:25:16;97210.34;;;10.70;100.00
41202;BME280;26936;50.524;8.684;2023-03-14T02:27:46;97225.44;;;10.67;100.00
41202;BME280;26936;50.524;8.684;2023-03-14T02:30:20;97211.41;;;10.73;100.00
41202;BME280;26936;50.524;8.684;2023-03-14T02:32:49;97198.59;;;10.72;100.00
41202;BME280;26936;50.524;8.684;2023-03-14T02:35:26;97207.06;;;10.77;99.40
41202;BME280;26936;50.524;8.684;2023-03-14T02:40:23;97189.16;;;10.75;99.02
41202;BME280;26936;50.524;8.684;2023-03-14T02:42:48;97187.09;;;10.75;98.75
41202;BME280;26936;50.524;8.684;2023-03-14T02:47:43;97195.81;;;10.77;97.88
41202;BME280;26936;50.524;8.684;2023-03-14T02:50:24;97188.13;;;10.78;96.98
41202;BME280;26936;50.524;8.684;2023-03-14T02:52:51;97177.91;;;10.75;97.14
41202;BME280;26936;50.524;8.684;2023-03-14T02:55:21;97169.19;;;10.78;96.45
41202;BME280;26936;50.524;8.684;2023-03-14T02:57:46;97178.91;;;10.77;96.59
41202;BME280;26936;50.524;8.684;2023-03-14T03:00:12;97193.53;;;10.81;97.09
41202;BME280;26936;50.524;8.684;2023-03-14T03:02:37;97183.75;;;10.77;96.91
41202;BME280;26936;50.524;8.684;2023-03-14T03:05:03;97180.94;;;10.71;97.28
41202;BME280;26936;50.524;8.684;2023-03-14T03:07:28;97169.44;;;10.75;95.56
41202;BME280;26936;50.524;8.684;2023-03-14T03:09:53;97184.50;;;10.72;96.64
41202;BME280;26936;50.524;8.684;2023-03-14T03:12:18;97183.75;;;10.77;95.98
41202;BME280;26936;50.524;8.684;2023-03-14T03:14:44;97174.53;;;10.71;96.57
41202;BME280;26936;50.524;8.684;2023-03-14T03:17:09;97164.56;;;10.70;96.04
41202;BME280;26936;50.524;8.684;2023-03-14T03:19:35;97170.72;;;10.74;95.66
41202;BME280;26936;50.524;8.684;2023-03-14T03:22:00;97162.25;;;10.68;95.57
41202;BME280;26936;50.524;8.684;2023-03-14T03:24:26;97168.66;;;10.74;94.86
41202;BME280;26936;50.524;8.684;2023-03-14T03:26:52;97183.97;;;10.62;95.25
41202;BME280;26936;50.524;8.684;2023-03-14T03:29:17;97176.56;;;10.65;94.48
41202;BME280;26936;50.524;8.684;2023-03-14T03:31:43;97170.91;;;10.59;94.69
41202;BME280;26936;50.524;8.684;2023-03-14T03:34:12;97167.88;;;10.63;94.41
41202;BME280;26936;50.524;8.684;2023-03-14T03:36:38;97183.69;;;10.55;94.24
41202;BME280;26936;50.524;8.684;2023-03-14T03:39:03;97164.22;;;10.51;94.46
41202;BME280;26936;50.524;8.684;2023-03-14T03:41:29;97155.28;;;10.53;94.39
41202;BME280;26936;50.524;8.684;2023-03-14T03:43:56;97155.00;;;10.51;94.42
41202;BME280;26936;50.524;8.684;2023-03-14T03:46:21;97160.41;;;10.49;93.60
41202;BME280;26936;50.524;8.684;2023-03-14T03:48:47;97157.28;;;10.41;93.90
41202;BME280;26936;50.524;8.684;2023-03-14T03:51:14;97160.09;;;10.41;93.96
41202;BME280;26936;50.524;8.684;2023-03-14T03:53:40;97160.38;;;10.43;93.03
41202;BME280;26936;50.524;8.684;2023-03-14T03:56:06;97162.91;;;10.41;93.57
41202;BME280;26936;50.524;8.684;2023-03-14T03:58:31;97161.38;;;10.40;93.42
41202;BME280;26936;50.524;8.684;2023-03-14T04:00:57;97154.97;;;10.34;93.77
41202;BME280;26936;50.524;8.684;2023-03-14T04:03:22;97157.78;;;10.40;93.60
41202;BME280;26936;50.524;8.684;2023-03-14T04:05:58;97153.91;;;10.32;93.78
41202;BME280;26936;50.524;8.684;2023-03-14T04:08:23;97138.06;;;10.29;93.86
41202;BME280;26936;50.524;8.684;2023-03-14T04:10:49;97149.03;;;10.27;94.16
41202;BME280;26936;50.524;8.684;2023-03-14T04:13:14;97135.44;;;10.20;94.25
41202;BME280;26936;50.524;8.684;2023-03-14T04:15:39;97133.94;;;10.24;94.06
41202;BME280;26936;50.524;8.684;2023-03-14T04:18:04;97135.47;;;10.25;93.58
41202;BME280;26936;50.524;8.684;2023-03-14T04:20:30;97130.09;;;10.22;93.78
41202;BME280;26936;50.524;8.684;2023-03-14T04:22:55;97126.25;;;10.19;93.77
41202;BME280;26936;50.524;8.684;2023-03-14T04:25:20;97116.28;;;10.24;93.59
41202;BME280;26936;50.524;8.684;2023-03-14T04:27:46;97129.53;;;10.12;94.73
41202;BME280;26936;50.524;8.684;2023-03-14T04:30:12;97122.66;;;10.19;95.02
41202;BME280;26936;50.524;8.684;2023-03-14T04:32:39;97118.81;;;10.16;95.14
41202;BME280;26936;50.524;8.684;2023-03-14T04:35:04;97120.63;;;10.25;94.42
41202;BME280;26936;50.524;8.684;2023-03-14T04:37:30;97116.28;;;10.24;94.70
41202;BME280;26936;50.524;8.684;2023-03-14T04:39:55;97123.19;;;10.23;94.65
41202;BME280;26936;50.524;8.684;2023-03-14T04:42:20;97118.41;;;10.34;94.36
41202;BME280;26936;50.524;8.684;2023-03-14T04:44:45;97108.41;;;10.28;94.39
41202;BME280;26936;50.524;8.684;2023-03-14T04:47:11;97102.56;;;10.42;93.41
41202;BME280;26936;50.524;8.684;2023-03-14T04:49:37;97117.13;;;10.41;93.79
41202;BME280;26936;50.524;8.684;2023-03-14T04:52:02;97117.63;;;10.34;94.75
41202;BME280;26936;50.524;8.684;2023-03-14T04:54:28;97106.16;;;10.48;93.52
41202;BME280;26936;50.524;8.684;2023-03-14T04:56:53;97108.22;;;10.53;93.18
41202;BME280;26936;50.524;8.684;2023-03-14T04:59:18;97106.94;;;10.54;93.57
41202;BME280;26936;50.524;8.684;2023-03-14T05:01:44;97100.53;;;10.48;93.79
41202;BME280;26936;50.524;8.684;2023-03-14T05:04:09;97087.97;;;10.49;93.86
41202;BME280;26936;50.524;8.684;2023-03-14T05:06:34;97093.63;;;10.55;93.86
41202;BME280;26936;50.524;8.684;2023-03-14T05:09:00;97095.16;;;10.56;93.44
41202;BME280;26936;50.524;8.684;2023-03-14T05:11:25;97102.09;;;10.60;92.83
41202;BME280;26936;50.524;8.684;2023-03-14T05:13:50;97100.56;;;10.59;92.67
41202;BME280;26936;50.524;8.684;2023-03-14T05:16:16;97095.16;;;10.56;93.03
41202;BME280;26936;50.524;8.684;2023-03-14T05:18:41;97086.72;;;10.56;92.64
41202;BME280;26936;50.524;8.684;2023-03-14T05:21:06;97088.03;;;10.60;92.38
41202;BME280;26936;50.524;8.684;2023-03-14T05:23:32;97077.53;;;10.61;92.28
41202;BME280;26936;50.524;8.684;2023-03-14T05:25:57;97086.50;;;10.65;91.41
41202;BME280;26936;50.524;8.684;2023-03-14T05:28:22;97082.66;;;10.62;90.97
41202;BME280;26936;50.524;8.684;2023-03-14T05:30:48;97084.19;;;10.63;90.51
41202;BME280;26936;50.524;8.684;2023-03-14T05:33:13;97073.19;;;10.65;90.70
41202;BME280;26936;50.524;8.684;2023-03-14T05:35:38;97074.72;;;10.72;90.36
41202;BME280;26936;50.524;8.684;2023-03-14T05:38:03;97070.66;;;10.73;89.65
41202;BME280;26936;50.524;8.684;2023-03-14T05:40:29;97079.59;;;10.71;90.49
41202;BME280;26936;50.524;8.684;2023-03-14T05:42:54;97072.19;;;10.68;90.80
41202;BME280;26936;50.524;8.684;2023-03-14T05:45:19;97048.66;;;10.71;90.49
41202;BME280;26936;50.524;8.684;2023-03-14T05:47:45;97069.13;;;10.77;90.55
41202;BME280;26936;50.524;8.684;2023-03-14T05:50:10;97055.53;;;10.70;91.20
41202;BME280;26936;50.524;8.684;2023-03-14T05:52:36;97038.94;;;10.78;90.43
41202;BME280;26936;50.524;8.684;2023-03-14T05:55:01;97039.97;;;10.75;91.16
41202;BME280;26936;50.524;8.684;2023-03-14T05:57:27;97031.25;;;10.73;91.56
41202;BME280;26936;50.524;8.684;2023-03-14T05:59:52;97028.44;;;10.73;91.55
41202;BME280;26936;50.524;8.684;2023-03-14T06:02:17;97023.56;;;10.79;91.67
41202;BME280;26936;50.524;8.684;2023-03-14T06:04:43;97036.59;;;10.71;92.11
41202;BME280;26936;50.524;8.684;2023-03-14T06:07:08;97033.03;;;10.76;92.14
41202;BME280;26936;50.524;8.684;2023-03-14T06:09:33;97038.41;;;10.74;91.53
41202;BME280;26936;50.524;8.684;2023-03-14T06:11:59;97029.69;;;10.72;91.55
41202;BME280;26936;50.524;8.684;2023-03-14T06:14:24;97033.53;;;10.74;91.92
41202;BME280;26936;50.524;8.684;2023-03-14T06:16:51;97043.00;;;10.66;92.32
41202;BME280;26936;50.524;8.684;2023-03-14T06:19:17;97044.53;;;10.72;92.45
41202;BME280;26936;50.524;8.684;2023-03-14T06:21:43;97046.34;;;10.75;91.76
41202;BME280;26936;50.524;8.684;2023-03-14T06:24:08;97045.31;;;10.73;92.25
41202;BME280;26936;50.524;8.684;2023-03-14T06:26:33;97054.28;;;10.71;92.67
41202;BME280;26936;50.524;8.684;2023-03-14T06:28:59;97054.53;;;10.73;92.98
41202;BME280;26936;50.524;8.684;2023-03-14T06:31:31;97053.75;;;10.67;94.62
41202;BME280;26936;50.524;8.684;2023-03-14T06:33:57;97055.78;;;10.56;96.70
41202;BME280;26936;50.524;8.684;2023-03-14T06:36:22;97049.13;;;10.59;97.44
41202;BME280;26936;50.524;8.684;2023-03-14T06:38:48;97043.47;;;10.48;98.01
41202;BME280;26936;50.524;8.684;2023-03-14T06:41:13;97048.59;;;10.44;98.60
41202;BME280;26936;50.524;8.684;2023-03-14T06:43:38;97049.63;;;10.41;98.76
41202;BME280;26936;50.524;8.684;2023-03-14T06:46:04;97042.19;;;10.43;97.62
41202;BME280;26936;50.524;8.684;2023-03-14T06:48:29;97048.56;;;10.38;97.57
41202;BME280;26936;50.524;8.684;2023-03-14T06:50:54;97047.78;;;10.38;97.63
41202;BME280;26936;50.524;8.684;2023-03-14T06:53:20;97045.25;;;10.34;97.03
41202;BME280;26936;50.524;8.684;2023-03-14T06:55:45;97043.69;;;10.28;98.08
41202;BME280;26936;50.524;8.684;2023-03-14T06:58:11;97044.72;;;10.30;96.90
41202;BME280;26936;50.524;8.684;2023-03-14T07:00:36;97037.56;;;10.29;96.71
41202;BME280;26936;50.524;8.684;2023-03-14T07:03:02;97038.38;;;10.41;94.65
41202;BME280;26936;50.524;8.684;2023-03-14T07:05:27;97037.56;;;10.35;94.83
41202;BME280;26936;50.524;8.684;2023-03-14T07:07:53;97030.41;;;10.34;94.61
41202;BME280;26936;50.524;8.684;2023-03-14T07:10:18;97036.06;;;10.45;93.97
41202;BME280;26936;50.524;8.684;2023-03-14T07:12:43;97038.88;;;10.45;92.81
41202;BME280;26936;50.524;8.684;2023-03-14T07:15:09;97043.75;;;10.55;92.43
41202;BME280;26936;50.524;8.684;2023-03-14T07:17:34;97037.59;;;10.51;92.53
41202;BME280;26936;50.524;8.684;2023-03-14T07:20:00;97046.31;;;10.59;92.30
41202;BME280;26936;50.524;8.684;2023-03-14T07:22:26;97043.28;;;10.73;90.32
41202;BME280;26936;50.524;8.684;2023-03-14T07:24:51;97043.53;;;10.70;90.58
41202;BME280;26936;50.524;8.684;2023-03-14T07:27:16;97048.91;;;10.73;91.05
41202;BME280;26936;50.524;8.684;2023-03-14T07:29:42;97051.72;;;10.84;89.56
41202;BME280;26936;50.524;8.684;2023-03-14T07:32:07;97042.00;;;10.91;89.75
41202;BME280;26936;50.524;8.684;2023-03-14T07:34:33;97035.09;;;10.86;90.50
41202;BME280;26936;50.524;8.684;2023-03-14T07:36:58;97034.31;;;10.86;90.36
41202;BME280;26936;50.524;8.684;2023-03-14T07:39:23;97024.88;;;10.94;90.59
41202;BME280;26936;50.524;8.684;2023-03-14T07:41:49;97035.34;;;10.94;90.26
41202;BME280;26936;50.524;8.684;2023-03-14T07:44:14;97029.22;;;10.95;90.69
41202;BME280;26936;50.524;8.684;2023-03-14T07:46:39;97037.91;;;11.03;90.06
41202;BME280;26936;50.524;8.684;2023-03-14T07:49:04;97035.88;;;11.09;90.28
41202;BME280;26936;50.524;8.684;2023-03-14T07:51:30;97038.94;;;11.17;90.54
41202;BME280;26936;50.524;8.684;2023-03-14T07:53:55;97031.53;;;11.19;91.03
41202;BME280;26936;50.524;8.684;2023-03-14T07:56:20;97033.28;;;11.11;91.56
41202;BME280;26936;50.524;8.684;2023-03-14T07:58:46;97042.75;;;11.08;93.40
41202;BME280;26936;50.524;8.684;2023-03-14T08:01:11;97040.19;;;11.05;93.05
41202;BME280;26936;50.524;8.684;2023-03-14T08:03:36;97035.38;;;11.00;93.08
41202;BME280;26936;50.524;8.684;2023-03-14T08:06:02;97036.13;;;11.00;92.77
41202;BME280;26936;50.524;8.684;2023-03-14T08:08:27;97046.34;;;11.03;92.29
41202;BME280;26936;50.524;8.684;2023-03-14T08:10:52;97041.22;;;11.02;93.26
41202;BME280;26936;50.524;8.684;2023-03-14T08:13:17;97048.66;;;11.10;92.16
41202;BME280;26936;50.524;8.684;2023-03-14T08:15:47;97042.53;;;11.06;92.45
41202;BME280;26936;50.524;8.684;2023-03-14T08:18:13;97049.69;;;11.07;91.54
41202;BME280;26936;50.524;8.684;2023-03-14T08:20:38;97044.56;;;11.11;91.75
41202;BME280;26936;50.524;8.684;2023-03-14T08:23:04;97046.63;;;11.11;91.70
41202;BME280;26936;50.524;8.684;2023-03-14T08:25:30;97047.63;;;11.13;92.45
41202;BME280;26936;50.524;8.684;2023-03-14T08:27:55;97050.97;;;11.12;92.24
41202;BME280;26936;50.524;8.684;2023-03-14T08:30:21;97049.41;;;11.16;92.31
41202;BME280;26936;50.524;8.684;2023-03-14T08:32:47;97046.88;;;11.24;91.31
41202;BME280;26936;50.524;8.684;2023-03-14T08:35:13;97046.63;;;11.22;91.91
41202;BME280;26936;50.524;8.684;2023-03-14T08:37:39;97057.63;;;11.20;92.36
41202;BME280;26936;50.524;8.684;2023-03-14T08:40:05;97053.53;;;11.26;91.38
41202;BME280;26936;50.524;8.684;2023-03-14T08:42:39;97045.06;;;11.26;91.18
41202;BME280;26936;50.524;8.684;2023-03-14T08:45:05;97050.19;;;11.22;90.77
41202;BME280;26936;50.524;8.684;2023-03-14T08:47:31;97051.25;;;11.19;91.29
41202;BME280;26936;50.524;8.684;2023-03-14T08:49:57;97050.19;;;11.22;90.86
41202;BME280;26936;50.524;8.684;2023-03-14T08:52:22;97051.72;;;11.23;91.27
41202;BME280;26936;50.524;8.684;2023-03-14T08:54:48;97053.00;;;11.39;91.00
41202;BME280;26936;50.524;8.684;2023-03-14T08:57:13;97064.53;;;11.46;90.35
41202;BME280;26936;50.524;8.684;2023-03-14T08:59:38;97064.75;;;11.54;89.15
41202;BME280;26936;50.524;8.684;2023-03-14T09:02:04;97058.59;;;11.55;88.33
41202;BME280;26936;50.524;8.684;2023-03-14T09:04:31;97051.19;;;11.69;88.29
41202;BME280;26936;50.524;8.684;2023-03-14T09:06:56;97046.31;;;11.64;87.73
41202;BME280;26936;50.524;8.684;2023-03-14T09:09:23;97046.81;;;11.62;87.90
41202;BME280;26936;50.524;8.684;2023-03-14T09:11:48;97050.19;;;11.66;88.76
41202;BME280;26936;50.524;8.684;2023-03-14T09:14:14;97051.97;;;11.64;89.20
41202;BME280;26936;50.524;8.684;2023-03-14T09:16:39;97062.19;;;11.56;91.04
41202;BME280;26936;50.524;8.684;2023-03-14T09:19:04;97063.22;;;11.53;91.34
41202;BME280;26936;50.524;8.684;2023-03-14T09:21:30;97055.03;;;11.55;89.30
41202;BME280;26936;50.524;8.684;2023-03-14T09:23:56;97069.34;;;11.57;90.40
41202;BME280;26936;50.524;8.684;2023-03-14T09:26:21;97068.88;;;11.58;90.72
41202;BME280;26936;50.524;8.684;2023-03-14T09:28:46;97075.25;;;11.59;90.02
41202;BME280;26936;50.524;8.684;2023-03-14T09:31:12;97071.94;;;11.66;90.07
41202;BME280;26936;50.524;8.684;2023-03-14T09:33:38;97066.03;;;11.80;89.34
41202;BME280;26936;50.524;8.684;2023-03-14T09:36:05;97074.47;;;11.80;90.02
41202;BME280;26936;50.524;8.684;2023-03-14T09:38:30;97064.47;;;11.90;89.28
41202;BME280;26936;50.524;8.684;2023-03-14T09:40:59;97069.06;;;11.99;89.00
41202;BME280;26936;50.524;8.684;2023-03-14T09:43:26;97060.06;;;12.00;89.46
41202;BME280;26936;50.524;8.684;2023-03-14T09:45:53;97077.22;;;12.13;89.40
41202;BME280;26936;50.524;8.684;2023-03-14T09:48:26;97078.47;;;12.12;91.09
41202;BME280;26936;50.524;8.684;2023-03-14T09:50:54;97085.69;;;12.02;93.19
41202;BME280;26936;50.524;8.684;2023-03-14T09:53:24;97089.81;;;11.96;95.48
41202;BME280;26936;50.524;8.684;2023-03-14T09:55:50;97098.25;;;12.01;95.58
41202;BME280;26936;50.524;8.684;2023-03-14T09:58:21;97069.47;;;12.19;95.82
41202;BME280;26936;50.524;8.684;2023-03-14T10:00:49;97078.88;;;12.44;93.79
41202;BME280;26936;50.524;8.684;2023-03-14T10:03:22;97070.13;;;12.48;95.42
41202;BME280;26936;50.524;8.684;2023-03-14T10:05:49;97070.31;;;12.61;93.60
41202;BME280;26936;50.524;8.684;2023-03-14T10:08:14;97072.69;;;12.46;93.41
41202;BME280;26936;50.524;8.684;2023-03-14T10:10:40;97071.69;;;12.43;92.75
41202;BME280;26936;50.524;8.684;2023-03-14T10:13:20;97069.47;;;12.19;94.89
41202;BME280;26936;50.524;8.684;2023-03-14T10:18:19;97078.06;;;11.81;98.66
41202;BME280;26936;50.524;8.684;2023-03-14T10:20:47;97073.69;;;11.80;100.00
41202;BME280;26936;50.524;8.684;2023-03-14T10:25:45;97081.16;;;11.72;100.00
41202;BME280;26936;50.524;8.684;2023-03-14T10:28:25;97082.69;;;11.62;100.00
41202;BME280;26936;50.524;8.684;2023-03-14T10:30:51;97074.50;;;11.64;100.00
41202;BME280;26936;50.524;8.684;2023-03-14T10:33:28;97082.19;;;11.63;100.00
41202;BME280;26936;50.524;8.684;2023-03-14T10:35:56;97076.06;;;11.65;100.00
41202;BME280;26936;50.524;8.684;2023-03-14T10:38:24;97070.13;;;11.68;100.00
41202;BME280;26936;50.524;8.684;2023-03-14T10:40:52;97065.00;;;11.67;100.00
41202;BME280;26936;50.524;8.684;2023-03-14T10:43:22;97068.34;;;11.60;100.00
41202;BME280;26936;50.524;8.684;2023-03-14T10:45:57;97067.06;;;11.61;100.00
41202;BME280;26936;50.524;8.684;2023-03-14T10:48:24;97071.44;;;11.56;100.00
41202;BME280;26936;50.524;8.684;2023-03-14T10:51:11;97070.13;;;11.57;100.00
41202;BME280;26936;50.524;8.684;2023-03-14T10:53:43;97079.84;;;11.62;100.00
41202;BME280;26936;50.524;8.684;2023-03-14T10:56:14;97068.63;;;11.45;100.00
41202;BME280;26936;50.524;8.684;2023-03-14T10:58:42;97077.56;;;11.49;100.00
41202;BME280;26936;50.524;8.684;2023-03-14T11:06:56;97082.97;;;11.42;100.00
41202;BME280;26936;50.524;8.684;2023-03-14T11:09:32;97070.16;;;11.41;100.00
41202;BME280;26936;50.524;8.684;2023-03-14T11:14:46;97076.56;;;11.41;100.00
41202;BME280;26936;50.524;8.684;2023-03-14T11:17:41;97086.28;;;11.57;100.00
41202;BME280;26936;50.524;8.684;2023-03-14T11:20:38;97090.91;;;11.60;100.00
41202;BME280;26936;50.524;8.684;2023-03-14T11:25:54;97084.75;;;11.45;100.00
41202;BME280;26936;50.524;8.684;2023-03-14T11:28:29;97097.03;;;11.47;100.00
41202;BME280;26936;50.524;8.684;2023-03-14T11:31:08;97091.69;;;11.38;100.00
41202;BME280;26936;50.524;8.684;2023-03-14T11:33:42;97106.00;;;11.29;100.00
41202;BME280;26936;50.524;8.684;2023-03-14T11:36:20;97111.41;;;11.27;100.00
41202;BME280;26936;50.524;8.684;2023-03-14T11:38:49;97118.84;;;11.19;100.00
41202;BME280;26936;50.524;8.684;2023-03-14T11:41:39;97121.63;;;11.08;100.00
41202;BME280;26936;50.524;8.684;2023-03-14T11:44:36;97131.13;;;11.00;100.00
41202;BME280;26936;50.524;8.684;2023-03-14T11:47:17;97136.47;;;10.92;100.00
41202;BME280;26936;50.524;8.684;2023-03-14T11:49:53;97145.38;;;10.74;100.00
41202;BME280;26936;50.524;8.684;2023-03-14T11:52:33;97171.97;;;10.67;100.00
41202;BME280;26936;50.524;8.684;2023-03-14T11:55:11;97196.38;;;10.34;100.00
41202;BME280;26936;50.524;8.684;2023-03-14T11:57:39;97206.16;;;10.07;100.00
41202;BME280;26936;50.524;8.684;2023-03-14T12:00:20;97220.88;;;9.91;100.00
41202;BME280;26936;50.524;8.684;2023-03-14T12:05:39;97231.75;;;9.47;100.00
41202;BME280;26936;50.524;8.684;2023-03-14T12:10:39;97254.84;;;9.31;100.00
41202;BME280;26936;50.524;8.684;2023-03-14T12:13:08;97258.09;;;9.24;100.00
41202;BME280;26936;50.524;8.684;2023-03-14T12:15:39;97275.50;;;9.28;100.00
41202;BME280;26936;50.524;8.684;2023-03-14T12:18:18;97283.06;;;9.22;100.00
41202;BME280;26936;50.524;8.684;2023-03-14T12:20:54;97297.28;;;9.13;100.00
41202;BME280;26936;50.524;8.684;2023-03-14T12:23:21;97298.97;;;9.05;100.00
41202;BME280;26936;50.524;8.684;2023-03-14T12:25:46;97304.59;;;9.05;100.00
41202;BME280;26936;50.524;8.684;2023-03-14T12:28:30;97309.78;;;8.92;100.00
41202;BME280;26936;50.524;8.684;2023-03-14T12:30:56;97313.00;;;8.85;100.00
41202;BME280;26936;50.524;8.684;2023-03-14T12:33:28;97321.59;;;8.76;100.00
41202;BME280;26936;50.524;8.684;2023-03-14T12:35:59;97335.88;;;8.78;100.00
41202;BME280;26936;50.524;8.684;2023-03-14T12:38:49;97338.91;;;8.74;100.00
41202;BME280;26936;50.524;8.684;2023-03-14T12:43:47;97339.03;;;8.65;100.00
41202;BME280;26936;50.524;8.684;2023-03-14T12:46:26;97344.88;;;8.82;100.00
41202;BME280;26936;50.524;8.684;2023-03-14T12:51:37;97366.59;;;9.21;100.00
41202;BME280;26936;50.524;8.684;2023-03-14T12:54:27;97355.88;;;9.25;100.00
41202;BME280;26936;50.524;8.684;2023-03-14T12:59:50;97368.91;;;9.69;100.00
41202;BME280;26936;50.524;8.684;2023-03-14T13:02:37;97369.84;;;9.86;100.00
41202;BME280;26936;50.524;8.684;2023-03-14T13:05:10;97375.84;;;9.99;100.00
41202;BME280;26936;50.524;8.684;2023-03-14T13:12:47;97401.03;;;9.62;100.00
41202;BME280;26936;50.524;8.684;2023-03-14T13:17:46;97427.84;;;9.43;100.00
41202;BME280;26936;50.524;8.684;2023-03-14T13:20:18;97443.53;;;9.29;100.00
41202;BME280;26936;50.524;8.684;2023-03-14T13:22:46;97453.00;;;9.32;100.00
41202;BME280;26936;50.524;8.684;2023-03-14T13:25:12;97458.34;;;9.30;100.00
41202;BME280;26936;50.524;8.684;2023-03-14T13:27:37;97469.13;;;9.17;100.00
41202;BME280;26936;50.524;8.684;2023-03-14T13:32:48;97478.44;;;9.23;100.00
41202;BME280;26936;50.524;8.684;2023-03-14T13:35:16;97475.19;;;9.30;99.83
41202;BME280;26936;50.524;8.684;2023-03-14T13:37:42;97491.88;;;9.19;99.16
41202;BME280;26936;50.524;8.684;2023-03-14T13:40:30;97507.31;;;9.09;100.00
41202;BME280;26936;50.524;8.684;2023-03-14T13:43:09;97517.59;;;8.97;100.00
41202;BME280;26936;50.524;8.684;2023-03-14T13:45:44;97513.56;;;8.84;100.00
41202;BME280;26936;50.524;8.684;2023-03-14T13:48:12;97520.06;;;8.61;100.00
41202;BME280;26936;50.524;8.684;2023-03-14T13:50:44;97543.66;;;8.25;100.00
41202;BME280;26936;50.524;8.684;2023-03-14T13:53:11;97571.50;;;8.29;100.00